Airfield :
LOGIN :

Register | Disclaimer

   EN    FR    IT 

 










Legend :    VFR   Marginal VFR   IFR   Intensive IFR   Very Intensive IFR
Visi :
Ceiling :
>= 8 km
>= 3000ft
5 to 8 km
1000 to 3000 ft
1500m to 5 km
500 to 1000 ft
800 to 1500m
200 to 500 ft
< 800m
< 200 ft
Symbols :   Thunderstorms  Fog  Heavy snow  Heavy precipitations  Wind > 20 kt
SIGMETs :     Misc.  Thunderstorms  Icing  Turbulence  Mountain Waves  Volcanic Ashes






- Airport Elevation : 26 ft
- IATA code : BIA


LFKB - Bastia

CURRENT METAR :
  • 230730Z AUTO 14011KT 9000 NSC 20/19 Q1017 TEMPO BKN012 BECMG 14015G25KT

EXPIRED METARs :
  • 230700Z AUTO 17004KT 130V200 9000 NSC 18/17 Q1017 TEMPO BKN012 BECMG 14015G25KT
  • 230630Z AUTO 18003KT 9999 FEW009 16/15 Q1017 TEMPO BKN012 BECMG 14015G25KT
  • 230600Z AUTO 20004KT 150V240 9999 OVC010 15/14 Q1017 BECMG 14015G25KT
  • 230530Z AUTO VRB03KT 9999 BKN010 14/13 Q1017 BECMG 14015G25KT
  • 230500Z AUTO 27003KT CAVOK 15/14 Q1017 TEMPO BKN012 BECMG 14015G25KT

TAF TAF LFKB
Valid from the 23 at 03:00 until the 24 at 03:00 UTC


230200Z 2303/2403 14010KT CAVOK TX23/2312Z TN17/2303Z
TEMPO 2303/2312 BKN012
BECMG 2303/2306 14015G25KT
TEMPO 2312/2403 4000 BR BKN006 BKN012
ATIS : +33 4 95 59 19 40



MET'MAP, your aeronautical weather chart ! - Copyright ORBIFLY December 2007 - Disclaimer

ORBIFLY MET'MAP TEAM :

Programming & Development : Alexandra Zaïnal
Concept & Development : Baudouin d'Aumeries
Co-Development & Prog : Marc-Olivier Méhu
Technical & hardware support : Manuel Goepfert

Contact : metmap@orbifly.com




SOURCES & CREDITS :

   NOAA